Wales, Wisconsin
Current Conditions -  °F | °C
As of 12:15 AM on Sunday 26 Oct 2014 (Local Time) from KUES Reporting Station
Clear Clear  
Wind Chill: 38°   Ceiling: Unl
Heat Index: 43°   Visibility: 10mi
Dew Point: 30°   Wind: 8mph
Humidity: 61%   Direction: 280°W
Pressure: 29.98"   Gusts: NA
Location:  43°N, 88.38°W
Report Text: KUES 260515Z AUTO 28007KT 10SM CLR 06/M01 A2998 RMK AO2
Loading
Personal Weather Stations






























Interactive Weather Map
Tropical Storm Tracking
New forecast layout! Learn more

10-Day Weather Forecast

Advertisements
Track Severe Weather on mobile